Port Hood, Canada
Current Conditions -  °F | °C
As of 8:00 PM on Friday 28 Nov 2014 (Local Time) from CYPD Reporting Station
Overcast Overcast  
Wind Chill: 20°   Ceiling: 3900
Heat Index: 27°   Visibility: 9mi
Dew Point: 25°   Wind: 6mph
Humidity: 93%   Direction: 360°N
Pressure: 29.87"   Gusts: NA
Location:  46.03°N, 61.53°W
Report Text: CYPD 290000Z AUTO 36005KT 9SM OVC039 M03/M04 A2987 RMK SLP121
Loading
Personal Weather Stations






























Interactive Weather Map New forecast layout! Learn more

10-Day Weather Forecast

Advertisements
Track Severe Weather on mobile